Time;durP1;ratioP1;P1;durP2;ratioP2;P2;SDS_P1;SDS_P2;PMS_P1;PMS_P2;Temp;Humidity;BMP_temperature;BMP_pressure;BME280_temperature;BME280_humidity;BME280_pressure;Samples;Min_cycle;Max_cycle;Signal;HPM_P1;HPM_P2
2022/02/21 00:01:09;;;;;;;;;;;;;;;19.54;37.42;100046.94;7278259;19;152135;-49
2022/02/21 00:03:36;;;;;;;;;;;;;;;19.52;37.25;100040.84;7280138;19;152063;-50
2022/02/21 00:06:03;;;;;;;;;;;;;;;19.53;37.14;100026.47;7281761;19;152235;-50
2022/02/21 00:08:30;;;;;;;;;;;;;;;19.58;36.81;100045.13;7286891;19;152063;-49
2022/02/21 00:10:57;;;;;;;;;;;;;;;19.50;37.08;100048.72;7281567;19;154392;-50
2022/02/21 00:13:24;;;;;;;;;;;;;;;19.46;37.22;100054.16;7281632;19;154261;-52
2022/02/21 00:15:51;;;;;;;;;;;;;;;19.44;37.24;100041.63;7278054;19;152908;-50
2022/02/21 00:18:19;;;;;;;;;;;;;;;19.40;37.28;100057.38;7284206;19;152429;-50
2022/02/21 00:20:46;;;;;;;;;;;;;;;19.35;37.10;100077.16;7284261;19;152135;-51
2022/02/21 00:23:13;;;;;;;;;;;;;;;19.28;37.45;100083.19;7286202;19;152674;-49
2022/02/21 00:25:40;;;;;;;;;;;;;;;19.27;37.10;100086.31;7281638;19;153033;-49
2022/02/21 00:28:07;;;;;;;;;;;;;;;19.25;37.23;100095.06;7282339;19;152095;-49
2022/02/21 00:30:34;;;;;;;;;;;;;;;19.22;37.14;100103.25;7282606;19;153247;-50
2022/02/21 00:33:00;;;;;;;;;;;;;;;19.17;37.23;100090.19;7281261;19;154109;-49
2022/02/21 00:35:27;;;;;;;;;;;;;;;19.15;37.15;100091.69;7290098;19;153824;-49
2022/02/21 00:37:56;;;;;;;;;;;;;;;19.12;37.27;100101.56;7281258;19;153520;-50
2022/02/21 00:40:23;;;;;;;;;;;;;;;19.07;37.09;100090.50;7280965;19;152194;-49
2022/02/21 00:42:49;;;;;;;;;;;;;;;19.02;37.57;100091.44;7281895;19;153862;-49
2022/02/21 00:45:17;;;;;;;;;;;;;;;19.00;37.11;100096.53;7283235;19;153891;-49
2022/02/21 00:47:44;;;;;;;;;;;;;;;18.97;37.75;100088.78;7278920;19;151895;-49
2022/02/21 00:50:11;;;;;;;;;;;;;;;18.94;37.54;100097.78;7281205;19;152513;-51
2022/02/21 00:52:37;;;;;;;;;;;;;;;18.89;37.45;100095.16;7283517;19;154172;-53
2022/02/21 00:55:05;;;;;;;;;;;;;;;18.88;37.01;100126.25;7282883;19;151959;-51
2022/02/21 00:57:32;;;;;;;;;;;;;;;18.81;36.62;100121.06;7289952;19;152092;-52
2022/02/21 00:59:59;;;;;;;;;;;;;;;18.79;36.89;100123.38;7283884;19;151986;-50
2022/02/21 01:02:27;;;;;;;;;;;;;;;18.76;36.87;100121.19;7283895;19;153411;-49
2022/02/21 01:04:54;;;;;;;;;;;;;;;18.74;37.01;100126.28;7278909;19;153136;-50
2022/02/21 01:07:21;;;;;;;;;;;;;;;18.72;37.44;100125.78;7279027;19;151647;-50
2022/02/21 01:09:48;;;;;;;;;;;;;;;18.68;37.56;100130.34;7282194;19;153261;-51
2022/02/21 01:12:15;;;;;;;;;;;;;;;18.66;37.39;100129.84;7279928;19;154278;-50
2022/02/21 01:14:42;;;;;;;;;;;;;;;18.63;37.32;100117.31;7281487;19;152160;-49
2022/02/21 01:17:09;;;;;;;;;;;;;;;18.61;37.27;100136.41;7279953;19;152502;-51
2022/02/21 01:19:36;;;;;;;;;;;;;;;18.55;36.80;100122.81;7289180;19;154145;-50
2022/02/21 01:22:03;;;;;;;;;;;;;;;18.51;37.12;100131.00;7282694;19;152293;-50
2022/02/21 01:24:30;;;;;;;;;;;;;;;18.49;36.85;100122.06;7280227;19;152340;-51
2022/02/21 01:26:57;;;;;;;;;;;;;;;18.46;36.58;100117.13;7281600;19;151615;-50
2022/02/21 01:29:24;;;;;;;;;;;;;;;18.46;37.09;100119.09;7285581;19;151777;-50
2022/02/21 01:31:53;;;;;;;;;;;;;;;18.43;36.94;100106.56;7282240;19;153738;-50
2022/02/21 01:34:21;;;;;;;;;;;;;;;18.53;37.50;100119.53;7284018;19;151829;-55
2022/02/21 01:36:48;;;;;;;;;;;;;;;18.46;37.11;100108.72;7283676;19;153960;-50
2022/02/21 01:39:15;;;;;;;;;;;;;;;18.42;37.64;100123.66;7282276;19;152625;-51
2022/02/21 01:41:42;;;;;;;;;;;;;;;18.38;37.63;100125.44;7288021;19;152240;-50
2022/02/21 01:44:10;;;;;;;;;;;;;;;18.34;37.73;100116.03;7279723;19;153314;-51
2022/02/21 01:46:38;;;;;;;;;;;;;;;18.32;38.01;100119.13;7282302;19;152533;-50
2022/02/21 01:49:05;;;;;;;;;;;;;;;18.27;37.77;100144.41;7282974;19;152208;-50
2022/02/21 01:51:33;;;;;;;;;;;;;;;18.26;38.05;100137.13;7282267;19;154926;-50
2022/02/21 01:54:01;;;;;;;;;;;;;;;18.26;37.62;100150.31;7282675;19;152014;-50
2022/02/21 01:56:28;;;;;;;;;;;;;;;18.23;37.71;100146.16;7284983;19;153377;-50
2022/02/21 01:58:55;;;;;;;;;;;;;;;18.19;37.80;100159.94;7281449;19;154762;-50
2022/02/21 02:01:22;;;;;;;;;;;;;;;18.17;38.34;100151.03;7278872;19;151907;-50
2022/02/21 02:03:48;;;;;;;;;;;;;;;18.16;38.43;100137.38;7291545;19;153313;-50
2022/02/21 02:06:16;;;;;;;;;;;;;;;18.16;38.69;100134.59;7285245;19;151901;-50
2022/02/21 02:08:43;;;;;;;;;;;;;;;18.14;38.60;100143.28;7283863;19;152975;-52
2022/02/21 02:11:11;;;;;;;;;;;;;;;18.13;38.47;100147.22;7282542;19;154423;-49
2022/02/21 02:13:38;;;;;;;;;;;;;;;18.11;38.87;100143.09;7283429;19;152171;-50
2022/02/21 02:16:05;;;;;;;;;;;;;;;18.09;39.08;100162.13;7284747;19;152781;-51
2022/02/21 02:18:32;;;;;;;;;;;;;;;18.07;39.07;100136.47;7281827;19;153230;-50
2022/02/21 02:20:59;;;;;;;;;;;;;;;18.05;39.01;100139.56;7282541;19;152801;-50
2022/02/21 02:23:26;;;;;;;;;;;;;;;18.01;38.95;100129.31;7291377;19;154453;-50
2022/02/21 02:25:53;;;;;;;;;;;;;;;17.99;39.01;100132.41;7284563;19;151849;-50
2022/02/21 02:28:20;;;;;;;;;;;;;;;17.97;38.90;100123.53;7279362;19;152019;-51
2022/02/21 02:30:46;;;;;;;;;;;;;;;17.97;39.04;100128.28;7281809;19;153259;-51
2022/02/21 02:33:13;;;;;;;;;;;;;;;17.95;38.95;100119.38;7284991;19;152332;-50
2022/02/21 02:35:40;;;;;;;;;;;;;;;17.92;39.18;100108.81;7284401;19;152747;-51
2022/02/21 02:38:07;;;;;;;;;;;;;;;17.91;39.30;100123.94;7279305;19;154284;-50
2022/02/21 02:40:34;;;;;;;;;;;;;;;17.91;39.89;100121.97;7281592;19;152329;-50
2022/02/21 02:43:01;;;;;;;;;;;;;;;17.86;39.15;100130.44;7279649;19;152582;-50
2022/02/21 02:45:28;;;;;;;;;;;;;;;17.90;39.72;100123.09;7290745;19;153985;-50
2022/02/21 02:47:55;;;;;;;;;;;;;;;17.85;39.52;100117.63;7282300;19;153498;-49
2022/02/21 02:50:22;;;;;;;;;;;;;;;17.83;39.38;100127.44;7282492;19;153757;-50
2022/02/21 02:52:49;;;;;;;;;;;;;;;17.82;39.80;100131.38;7284157;19;151626;-51
2022/02/21 02:55:15;;;;;;;;;;;;;;;17.80;39.94;100128.91;7283335;19;153097;-51
2022/02/21 02:57:42;;;;;;;;;;;;;;;17.78;39.78;100112.44;7282199;19;152686;-52
2022/02/21 03:00:13;;;;;;;;;;;;;;;17.76;39.90;100131.47;7281282;19;153683;-50
2022/02/21 03:02:40;;;;;;;;;;;;;;;17.77;40.03;100124.75;7281861;19;153427;-50
2022/02/21 03:05:07;;;;;;;;;;;;;;;17.74;39.81;100110.59;7282422;19;153574;-50
2022/02/21 03:07:34;;;;;;;;;;;;;;;17.71;39.61;100109.25;7289424;19;152020;-51
2022/02/21 03:10:00;;;;;;;;;;;;;;;17.71;39.68;100112.03;7280252;19;154165;-50
2022/02/21 03:12:27;;;;;;;;;;;;;;;17.69;39.63;100116.28;7279794;19;152243;-50
2022/02/21 03:14:54;;;;;;;;;;;;;;;17.68;39.90;100117.41;7283603;19;153549;-50
2022/02/21 03:17:25;;;;;;;;;;;;;;;17.66;39.50;100106.56;7280248;19;154231;-51
2022/02/21 03:19:52;;;;;;;;;;;;;;;17.64;39.43;100103.22;7281979;19;151637;-50
2022/02/21 03:22:18;;;;;;;;;;;;;;;17.64;39.61;100119.16;7280944;19;153604;-50
2022/02/21 03:24:45;;;;;;;;;;;;;;;17.62;39.70;100118.66;7281703;19;153924;-51
2022/02/21 03:27:12;;;;;;;;;;;;;;;17.59;39.70;100105.28;7281261;19;152058;-50
2022/02/21 03:29:39;;;;;;;;;;;;;;;17.57;39.70;100118.72;7287493;19;152907;-50
2022/02/21 03:32:06;;;;;;;;;;;;;;;17.56;39.87;100108.69;7283594;19;151630;-51
2022/02/21 03:34:33;;;;;;;;;;;;;;;17.53;39.97;100115.72;7283795;19;152527;-50
2022/02/21 03:37:00;;;;;;;;;;;;;;;17.51;39.46;100105.97;7279505;19;153546;-51
2022/02/21 03:39:26;;;;;;;;;;;;;;;17.50;39.99;100107.94;7281745;19;151929;-51
2022/02/21 03:41:53;;;;;;;;;;;;;;;17.48;39.86;100109.41;7288740;19;154890;-51
2022/02/21 03:44:20;;;;;;;;;;;;;;;17.47;39.83;100110.53;7285917;19;153322;-50
2022/02/21 03:46:47;;;;;;;;;;;;;;;17.47;39.87;100111.38;7289252;19;151960;-50
2022/02/21 03:49:13;;;;;;;;;;;;;;;17.45;40.11;100124.78;7289996;19;152360;-50
2022/02/21 03:51:40;;;;;;;;;;;;;;;17.42;39.89;100093.88;7293851;19;152636;-50
2022/02/21 03:54:08;;;;;;;;;;;;;;;17.39;39.73;100119.63;7289764;19;153557;-50
2022/02/21 03:56:35;;;;;;;;;;;;;;;17.37;39.77;100116.31;7284755;19;153175;-50
2022/02/21 03:59:02;;;;;;;;;;;;;;;17.36;39.63;100104.31;7287291;19;151756;-50
2022/02/21 04:01:29;;;;;;;;;;;;;;;17.33;39.64;100099.34;7287633;19;151794;-51
2022/02/21 04:03:56;;;;;;;;;;;;;;;17.31;39.71;100099.63;7286586;19;153433;-50
2022/02/21 04:06:22;;;;;;;;;;;;;;;17.31;39.49;100085.69;7287843;19;151967;-50
2022/02/21 04:08:49;;;;;;;;;;;;;;;17.28;40.14;100088.25;7285597;19;153278;-50
2022/02/21 04:11:16;;;;;;;;;;;;;;;17.23;40.02;100091.16;7286843;19;152785;-50
2022/02/21 04:13:43;;;;;;;;;;;;;;;17.24;39.88;100113.19;7295781;19;152093;-51
2022/02/21 04:16:10;;;;;;;;;;;;;;;17.23;40.10;100102.31;7287172;19;152612;-51
2022/02/21 04:18:36;;;;;;;;;;;;;;;17.21;39.90;100101.81;7289178;19;152207;-52
2022/02/21 04:21:03;;;;;;;;;;;;;;;17.19;40.08;100110.47;7288683;19;152169;-50
2022/02/21 04:23:30;;;;;;;;;;;;;;;17.18;39.95;100110.78;7288783;19;153383;-51
2022/02/21 04:25:57;;;;;;;;;;;;;;;17.15;39.80;100111.41;7288808;19;151892;-50
2022/02/21 04:28:24;;;;;;;;;;;;;;;17.14;39.93;100104.16;7287242;19;151698;-50
2022/02/21 04:30:50;;;;;;;;;;;;;;;17.11;39.86;100111.19;7287368;19;153999;-51
2022/02/21 04:33:17;;;;;;;;;;;;;;;17.10;40.26;100103.94;7294656;19;151800;-50
2022/02/21 04:35:44;;;;;;;;;;;;;;;17.10;39.89;100103.94;7288075;19;153879;-50
2022/02/21 04:38:12;;;;;;;;;;;;;;;17.07;39.95;100089.78;7285447;19;153560;-50
2022/02/21 04:40:39;;;;;;;;;;;;;;;17.09;40.13;100099.50;7288871;19;152609;-50
2022/02/21 04:43:06;;;;;;;;;;;;;;;17.05;40.39;100087.28;7288040;19;153746;-50
2022/02/21 04:45:32;;;;;;;;;;;;;;;17.05;40.34;100078.91;7284708;19;151992;-50
2022/02/21 04:47:59;;;;;;;;;;;;;;;17.06;40.28;100085.31;7287724;19;153675;-50
2022/02/21 04:50:26;;;;;;;;;;;;;;;17.04;40.56;100076.41;7286880;19;152716;-49
2022/02/21 04:52:53;;;;;;;;;;;;;;;17.02;40.74;100076.75;7284041;19;151930;-50
2022/02/21 04:55:20;;;;;;;;;;;;;;;17.06;40.27;100082.53;7292412;19;152649;-51
2022/02/21 04:57:47;;;;;;;;;;;;;;;17.12;40.57;100092.47;7287727;19;151921;-53
2022/02/21 05:00:14;;;;;;;;;;;;;;;17.15;40.77;100087.13;7285793;19;153483;-50
2022/02/21 05:02:41;;;;;;;;;;;;;;;17.18;41.06;100080.91;7285037;19;154391;-50
2022/02/21 05:05:10;;;;;;;;;;;;;;;17.23;41.20;100074.41;7285337;19;152064;-50
2022/02/21 05:07:37;;;;;;;;;;;;;;;17.28;41.05;100065.94;7285318;19;152756;-51
2022/02/21 05:10:05;;;;;;;;;;;;;;;17.33;41.19;100068.63;7283097;19;154401;-50
2022/02/21 05:12:32;;;;;;;;;;;;;;;17.39;41.42;100052.63;7283969;19;152341;-50
2022/02/21 05:14:59;;;;;;;;;;;;;;;17.44;41.94;100046.94;7286102;19;152781;-50
2022/02/21 05:17:26;;;;;;;;;;;;;;;17.52;41.82;100046.22;7291975;19;153277;-50
2022/02/21 05:19:52;;;;;;;;;;;;;;;17.57;41.46;100034.94;7287745;19;153662;-50
2022/02/21 05:22:20;;;;;;;;;;;;;;;17.63;41.41;100028.94;7286038;19;154323;-50
2022/02/21 05:24:48;;;;;;;;;;;;;;;17.68;41.60;100011.25;7287301;19;151827;-50
2022/02/21 05:27:15;;;;;;;;;;;;;;;17.76;41.34;100018.91;7286063;19;152799;-50
2022/02/21 05:29:41;;;;;;;;;;;;;;;17.83;41.26;100021.28;7284899;19;153329;-50
2022/02/21 05:32:10;;;;;;;;;;;;;;;17.89;40.97;100014.44;7284995;19;151909;-50
2022/02/21 05:34:37;;;;;;;;;;;;;;;17.95;41.06;100007.59;7285224;19;152640;-50
2022/02/21 05:37:04;;;;;;;;;;;;;;;18.01;40.74;99998.78;7285652;19;152586;-50
2022/02/21 05:39:32;;;;;;;;;;;;;;;18.07;41.06;100011.50;7293336;19;152064;-51
2022/02/21 05:41:59;;;;;;;;;;;;;;;18.14;40.97;100025.88;7286256;19;155675;-55
2022/02/21 05:44:26;;;;;;;;;;;;;;;18.18;40.49;100001.72;7285907;19;152438;-50
2022/02/21 05:46:53;;;;;;;;;;;;;;;18.26;40.30;100004.94;7281877;19;152931;-50
2022/02/21 05:49:20;;;;;;;;;;;;;;;18.31;40.45;99988.84;7282894;19;154435;-50
2022/02/21 05:51:46;;;;;;;;;;;;;;;18.38;39.90;99992.03;7286865;19;151877;-50
2022/02/21 05:54:13;;;;;;;;;;;;;;;18.44;40.20;99978.75;7284333;19;153540;-51
2022/02/21 05:56:40;;;;;;;;;;;;;;;18.49;40.18;99982.22;7284576;19;152936;-51
2022/02/21 05:59:07;;;;;;;;;;;;;;;18.56;40.09;99995.81;7285949;19;151827;-51
2022/02/21 06:01:33;;;;;;;;;;;;;;;18.59;40.21;100007.19;7291762;19;153356;-50
2022/02/21 06:04:00;;;;;;;;;;;;;;;18.64;40.13;100000.63;7282934;19;151877;-51
2022/02/21 06:06:27;;;;;;;;;;;;;;;18.68;39.90;99982.06;7286200;19;153274;-50
2022/02/21 06:08:54;;;;;;;;;;;;;;;18.73;39.80;100001.50;7283190;19;154350;-50
2022/02/21 06:11:21;;;;;;;;;;;;;;;18.78;40.06;100004.19;7281635;19;152291;-49
2022/02/21 06:13:47;;;;;;;;;;;;;;;18.82;39.88;99996.78;7285189;19;152746;-49
2022/02/21 06:16:14;;;;;;;;;;;;;;;18.87;39.75;99981.84;7284966;19;153423;-50
2022/02/21 06:18:41;;;;;;;;;;;;;;;18.91;39.27;99980.88;7285592;19;152012;-51
2022/02/21 06:21:08;;;;;;;;;;;;;;;18.97;39.67;100023.56;7283183;19;152202;-51
2022/02/21 06:23:35;;;;;;;;;;;;;;;19.01;39.38;99988.19;7290143;19;152171;-49
2022/02/21 06:26:02;;;;;;;;;;;;;;;19.06;39.68;99985.25;7283489;19;152777;-49
2022/02/21 06:28:29;;;;;;;;;;;;;;;19.10;39.33;99983.44;7281679;19;153924;-49
2022/02/21 06:30:56;;;;;;;;;;;;;;;19.15;39.64;99976.88;7281218;19;152048;-49
2022/02/21 06:33:23;;;;;;;;;;;;;;;19.19;39.17;99964.72;7284825;19;153212;-48
2022/02/21 06:35:50;;;;;;;;;;;;;;;19.23;39.28;99981.69;7282973;19;154050;-48
2022/02/21 06:38:17;;;;;;;;;;;;;;;19.26;38.70;99983.84;7284277;19;151618;-48
2022/02/21 06:40:44;;;;;;;;;;;;;;;19.30;38.78;99982.06;7281485;19;153276;-48
2022/02/21 06:43:11;;;;;;;;;;;;;;;19.35;38.81;99990.31;7290729;19;153224;-49
2022/02/21 06:45:38;;;;;;;;;;;;;;;19.37;38.66;99985.19;7281531;19;153739;-48
2022/02/21 06:48:05;;;;;;;;;;;;;;;19.41;38.60;99983.41;7278532;19;153648;-49
2022/02/21 06:50:32;;;;;;;;;;;;;;;19.44;38.47;99985.59;7283239;19;152181;-49
2022/02/21 06:52:58;;;;;;;;;;;;;;;19.48;38.90;99962.22;7283779;19;153347;-49
2022/02/21 06:55:25;;;;;;;;;;;;;;;19.52;38.85;99976.41;7282037;19;155321;-49
2022/02/21 06:57:53;;;;;;;;;;;;;;;19.56;38.68;99968.16;7282476;19;152074;-48
2022/02/21 07:00:22;;;;;;;;;;;;;;;19.61;38.52;99965.22;7282699;19;152123;-50
2022/02/21 07:02:49;;;;;;;;;;;;;;;19.64;38.85;99959.78;7281433;19;155282;-51
2022/02/21 07:05:16;;;;;;;;;;;;;;;19.68;38.49;99987.97;7290955;19;151680;-51
2022/02/21 07:07:43;;;;;;;;;;;;;;;19.73;38.90;99996.22;7280889;19;153809;-50
2022/02/21 07:10:10;;;;;;;;;;;;;;;19.74;38.33;99993.09;7279884;19;152335;-50
2022/02/21 07:12:37;;;;;;;;;;;;;;;19.79;38.84;99997.72;7281408;19;153503;-50
2022/02/21 07:15:04;;;;;;;;;;;;;;;19.82;38.74;99994.25;7276054;19;154282;-49
2022/02/21 07:17:41;;;;;;;;;;;;;;;19.85;38.67;100016.84;7281088;19;151716;-50
2022/02/21 07:20:12;;;;;;;;;;;;;;;19.88;38.29;99990.16;7283158;19;152470;-50
2022/02/21 07:22:41;;;;;;;;;;;;;;;19.91;38.62;100003.50;7281861;19;153304;-50
2022/02/21 07:25:09;;;;;;;;;;;;;;;19.96;38.45;99984.56;7282939;19;151813;-50
2022/02/21 07:27:45;;;;;;;;;;;;;;;19.98;38.44;99993.47;7290234;19;152757;-50
2022/02/21 07:30:13;;;;;;;;;;;;;;;20.02;38.14;99990.00;7280101;19;152045;-49
2022/02/21 07:32:40;;;;;;;;;;;;;;;20.05;37.95;99990.16;7278493;19;154415;-49
2022/02/21 07:35:07;;;;;;;;;;;;;;;20.09;38.03;99977.13;7281244;19;152540;-50
2022/02/21 07:37:34;;;;;;;;;;;;;;;20.13;38.02;99974.50;7280755;19;151933;-50
2022/02/21 07:40:03;;;;;;;;;;;;;;;20.15;38.26;99975.00;7282039;19;155072;-50
2022/02/21 07:42:30;;;;;;;;;;;;;;;20.18;37.63;99974.34;7279225;19;153929;-50
2022/02/21 07:44:57;;;;;;;;;;;;;;;20.20;37.66;99956.03;7282689;19;151943;-50
2022/02/21 07:47:24;;;;;;;;;;;;;;;20.23;37.86;99972.19;7279236;19;152569;-51
2022/02/21 07:49:51;;;;;;;;;;;;;;;20.27;37.68;99970.38;7283256;19;153925;-52
2022/02/21 07:52:18;;;;;;;;;;;;;;;20.29;38.07;99962.47;7278948;19;153582;-50
2022/02/21 07:54:45;;;;;;;;;;;;;;;20.33;37.67;99976.69;7280458;19;154106;-50
2022/02/21 07:57:13;;;;;;;;;;;;;;;20.36;38.29;99981.63;7281423;19;151989;-51
2022/02/21 07:59:40;;;;;;;;;;;;;;;20.38;38.18;99982.13;7281639;19;152727;-49
2022/02/21 08:02:07;;;;;;;;;;;;;;;20.42;38.26;100019.59;7277619;19;154012;-49
2022/02/21 08:04:34;;;;;;;;;;;;;;;20.45;38.18;99990.84;7281381;19;152461;-49
2022/02/21 08:07:01;;;;;;;;;;;;;;;20.48;38.21;99998.63;7280667;19;151947;-50
2022/02/21 08:09:28;;;;;;;;;;;;;;;20.51;38.44;99992.34;7275155;19;153359;-50
2022/02/21 08:11:55;;;;;;;;;;;;;;;20.52;38.27;99991.19;7283721;19;152178;-50
2022/02/21 08:14:24;;;;;;;;;;;;;;;20.56;37.90;100000.59;7279904;19;155630;-50
2022/02/21 08:16:51;;;;;;;;;;;;;;;20.59;38.17;100016.78;7281181;19;152262;-50
2022/02/21 08:19:18;;;;;;;;;;;;;;;20.62;37.66;100006.88;7281298;19;153406;-49
2022/02/21 08:21:45;;;;;;;;;;;;;;;20.63;37.56;100020.56;7279619;19;153420;-51
2022/02/21 08:24:12;;;;;;;;;;;;;;;20.63;37.28;100020.56;7281346;19;151779;-50
2022/02/21 08:26:39;;;;;;;;;;;;;;;20.64;37.62;100013.78;7282601;19;156122;-50
2022/02/21 08:29:06;;;;;;;;;;;;;;;20.64;37.61;100013.78;7283978;19;153472;-53
2022/02/21 08:31:33;;;;;;;;;;;;;;;20.65;37.53;100017.44;7295038;19;151957;-51
2022/02/21 08:34:00;;;;;;;;;;;;;;;20.64;37.55;100019.41;7286170;19;154749;-50
2022/02/21 08:36:27;;;;;;;;;;;;;;;20.64;37.21;100029.81;7285617;19;152412;-50
2022/02/21 08:38:54;;;;;;;;;;;;;;;20.63;37.29;100034.59;7287300;19;153138;-50
2022/02/21 08:41:21;;;;;;;;;;;;;;;20.60;37.22;100043.69;7286020;19;155439;-50
2022/02/21 08:43:48;;;;;;;;;;;;;;;20.59;37.29;100044.84;7287144;19;152878;-50
2022/02/21 08:46:15;;;;;;;;;;;;;;;20.56;36.98;100053.94;7286383;19;152650;-50
2022/02/21 08:49:02;;;;;;;;;;;;;;;20.54;37.05;100042.19;7280489;19;153512;-50
2022/02/21 08:51:29;;;;;;;;;;;;;;;20.53;36.89;100063.00;7283873;19;151821;-50
2022/02/21 08:53:56;;;;;;;;;;;;;;;20.50;36.87;100052.44;7291154;19;152447;-50
2022/02/21 08:56:24;;;;;;;;;;;;;;;20.49;37.25;100064.81;7284523;19;152398;-49
2022/02/21 08:58:52;;;;;;;;;;;;;;;20.48;37.53;100070.75;7283423;19;153021;-50
2022/02/21 09:01:19;;;;;;;;;;;;;;;20.47;37.56;100088.75;7282592;19;154561;-50
2022/02/21 09:03:46;;;;;;;;;;;;;;;20.46;37.35;100099.16;7285278;19;152305;-50
2022/02/21 09:06:13;;;;;;;;;;;;;;;20.42;37.44;100082.16;7284391;19;153873;-50
2022/02/21 09:08:40;;;;;;;;;;;;;;;20.38;37.14;100088.75;7283012;19;153470;-49
2022/02/21 09:11:07;;;;;;;;;;;;;;;20.36;37.51;100082.63;7284555;19;151966;-50
2022/02/21 09:13:34;;;;;;;;;;;;;;;20.33;37.26;100088.91;7284254;19;153236;-50
2022/02/21 09:16:01;;;;;;;;;;;;;;;20.29;37.61;100087.88;7292403;19;152849;-52
2022/02/21 09:18:28;;;;;;;;;;;;;;;20.28;37.73;100105.84;7285493;19;151731;-51
2022/02/21 09:20:55;;;;;;;;;;;;;;;20.26;37.65;100110.97;7283081;19;153989;-50
2022/02/21 09:23:22;;;;;;;;;;;;;;;20.23;37.41;100129.28;7285735;19;152104;-50
2022/02/21 09:25:49;;;;;;;;;;;;;;;20.20;37.44;100137.53;7283707;19;152041;-50
2022/02/21 09:28:16;;;;;;;;;;;;;;;20.18;37.63;100142.63;7284316;19;155966;-50
2022/02/21 09:30:42;;;;;;;;;;;;;;;20.14;37.59;100158.44;7282893;19;152152;-50
2022/02/21 09:33:09;;;;;;;;;;;;;;;20.14;37.79;100133.22;7286498;19;153414;-50
2022/02/21 09:35:36;;;;;;;;;;;;;;;20.10;37.62;100163.88;7284741;19;153089;-49
2022/02/21 09:38:03;;;;;;;;;;;;;;;20.08;37.44;100154.16;7292428;19;151883;-50
2022/02/21 09:40:30;;;;;;;;;;;;;;;20.07;37.68;100163.72;7284693;19;153931;-49
2022/02/21 09:42:59;;;;;;;;;;;;;;;20.04;37.88;100186.78;7284719;19;152029;-49
2022/02/21 09:45:28;;;;;;;;;;;;;;;20.05;38.23;100175.25;7283004;19;152396;-50
2022/02/21 09:47:56;;;;;;;;;;;;;;;20.00;38.11;100200.63;7284361;19;152714;-50
2022/02/21 09:50:44;;;;;;;;;;;;;;;19.98;38.31;100214.16;7280613;19;152530;-50
2022/02/21 09:53:11;;;;;;;;;;;;;;;19.98;37.94;100200.97;7286148;19;152847;-50
2022/02/21 09:55:39;;;;;;;;;;;;;;;19.98;37.94;100231.81;7283724;19;152594;-50
2022/02/21 09:58:06;;;;;;;;;;;;;;;19.99;37.89;100207.38;7284758;19;152397;-50
2022/02/21 10:00:33;;;;;;;;;;;;;;;20.01;38.42;100198.66;7290637;19;153260;-50
2022/02/21 10:03:00;;;;;;;;;;;;;;;20.04;38.17;100226.03;7281827;19;151566;-53
2022/02/21 10:05:29;;;;;;;;;;;;;;;20.06;38.60;100232.16;7283163;19;152863;-51
2022/02/21 10:07:56;;;;;;;;;;;;;;;20.10;38.73;100248.03;7283291;19;152917;-50
2022/02/21 10:10:24;;;;;;;;;;;;;;;20.13;38.41;100224.09;7282870;19;152036;-50
2022/02/21 10:12:53;;;;;;;;;;;;;;;20.18;38.59;100232.38;7282603;19;153519;-50
2022/02/21 10:15:20;;;;;;;;;;;;;;;20.21;38.69;100231.75;7280770;19;154042;-50
2022/02/21 10:17:47;;;;;;;;;;;;;;;20.24;38.28;100247.91;7284700;19;151935;-50
2022/02/21 10:20:15;;;;;;;;;;;;;;;20.29;38.27;100250.59;7284657;19;153365;-50
2022/02/21 10:22:52;;;;;;;;;;;;;;;20.31;38.46;100245.50;7287580;19;154030;-50
2022/02/21 10:25:21;;;;;;;;;;;;;;;20.36;38.31;100260.19;7283625;19;152768;-50
2022/02/21 10:27:48;;;;;;;;;;;;;;;20.39;38.60;100265.19;7280760;19;154864;-50
2022/02/21 10:30:16;;;;;;;;;;;;;;;20.43;38.30;100296.22;7282380;19;151995;-50
2022/02/21 10:33:10;;;;;;;;;;;;;;;20.47;38.17;100283.19;7282274;19;153722;-50
2022/02/21 10:35:38;;;;;;;;;;;;;;;20.50;38.09;100290.13;7276879;19;153449;-50
2022/02/21 10:38:05;;;;;;;;;;;;;;;20.54;38.05;100294.78;7279566;19;152347;-49
2022/02/21 10:40:36;;;;;;;;;;;;;;;20.57;38.25;100307.34;7281233;19;153310;-50
2022/02/21 10:43:06;;;;;;;;;;;;;;;20.60;37.94;100324.34;7286930;19;154386;-50
2022/02/21 10:45:34;;;;;;;;;;;;;;;20.64;37.79;100346.97;7284391;19;152716;-50
2022/02/21 10:48:04;;;;;;;;;;;;;;;20.67;37.72;100341.53;7281995;19;153028;-50
2022/02/21 10:50:36;;;;;;;;;;;;;;;20.70;38.03;100331.66;7276932;19;151948;-50
2022/02/21 10:53:11;;;;;;;;;;;;;;;20.71;37.77;100338.94;7283379;19;152085;-50
2022/02/21 10:55:40;;;;;;;;;;;;;;;20.72;37.57;100352.63;7282090;19;153901;-50
2022/02/21 10:58:16;;;;;;;;;;;;;;;20.73;37.27;100345.03;7282870;19;151789;-50
2022/02/21 11:00:43;;;;;;;;;;;;;;;20.75;37.23;100359.59;7281440;19;152651;-50
2022/02/21 11:03:10;;;;;;;;;;;;;;;20.74;37.12;100370.00;7279997;19;153573;-50
2022/02/21 11:05:38;;;;;;;;;;;;;;;20.76;37.48;100356.44;7290882;19;152293;-57
2022/02/21 11:08:06;;;;;;;;;;;;;;;20.76;37.48;100375.25;7280529;19;153241;-52
2022/02/21 11:10:34;;;;;;;;;;;;;;;20.77;37.66;100385.34;7281721;19;152091;-50
2022/02/21 11:13:02;;;;;;;;;;;;;;;20.75;37.46;100387.66;7280389;19;153628;-50
2022/02/21 11:15:29;;;;;;;;;;;;;;;20.74;37.45;100392.44;7280307;19;153648;-49
2022/02/21 11:17:58;;;;;;;;;;;;;;;20.74;37.45;100422.50;7282604;19;152257;-50
2022/02/21 11:20:25;;;;;;;;;;;;;;;20.72;37.37;100405.13;7283716;19;152583;-50
2022/02/21 11:22:52;;;;;;;;;;;;;;;20.71;37.44;100409.13;7281080;19;154064;-50
2022/02/21 11:25:27;;;;;;;;;;;;;;;20.70;37.52;100415.88;7283625;19;151788;-50
2022/02/21 11:28:02;;;;;;;;;;;;;;;20.67;37.05;100439.00;7287792;19;152645;-50
2022/02/21 11:30:29;;;;;;;;;;;;;;;20.63;37.08;100441.59;7278102;19;152096;-50
2022/02/21 11:33:06;;;;;;;;;;;;;;;20.62;36.91;100439.13;7282294;19;154082;-50
2022/02/21 11:35:34;;;;;;;;;;;;;;;20.59;37.17;100451.81;7280607;19;153250;-52
2022/02/21 11:38:02;;;;;;;;;;;;;;;20.58;37.32;100455.75;7280559;19;151709;-50
2022/02/21 11:40:48;;;;;;;;;;;;;;;20.57;37.47;100458.91;7283033;19;152024;-50
2022/02/21 11:43:25;;;;;;;;;;;;;;;20.53;37.37;100475.56;7279151;19;154036;-51
2022/02/21 11:45:54;;;;;;;;;;;;;;;20.26;35.00;100476.47;7283966;19;151964;-51
2022/02/21 11:48:21;;;;;;;;;;;;;;;20.03;35.41;100469.19;7281510;19;153487;-50
2022/02/21 11:50:48;;;;;;;;;;;;;;;20.14;35.59;100452.94;7287603;19;152434;-50
2022/02/21 11:53:23;;;;;;;;;;;;;;;20.14;35.65;100475.38;7276639;19;153547;-50
2022/02/21 11:55:51;;;;;;;;;;;;;;;20.19;36.17;100469.66;7276743;19;153568;-51
2022/02/21 11:58:18;;;;;;;;;;;;;;;20.18;35.94;100473.59;7280987;19;152190;-51
2022/02/21 12:00:46;;;;;;;;;;;;;;;20.17;36.32;100469.94;7280518;19;154201;-50
2022/02/21 12:03:22;;;;;;;;;;;;;;;20.14;35.96;100493.03;7284507;19;152870;-51
2022/02/21 12:06:09;;;;;;;;;;;;;;;20.13;36.15;100474.53;7286065;19;152054;-51
2022/02/21 12:09:00;;;;;;;;;;;;;;;20.10;36.35;100485.56;7286702;19;153924;-51
2022/02/21 12:11:29;;;;;;;;;;;;;;;20.11;36.28;100499.28;7284338;19;152199;-50
2022/02/21 12:13:56;;;;;;;;;;;;;;;20.10;36.21;100494.81;7295322;19;151757;-51
2022/02/21 12:16:27;;;;;;;;;;;;;;;20.06;36.41;100519.03;7285340;19;152524;-51
2022/02/21 12:18:58;;;;;;;;;;;;;;;20.08;36.29;100521.53;7287995;19;152097;-51
2022/02/21 12:21:28;;;;;;;;;;;;;;;20.02;36.26;100529.22;7287459;19;154324;-51
2022/02/21 12:23:57;;;;;;;;;;;;;;;19.97;36.35;100549.81;7281471;19;153372;-56
2022/02/21 12:26:28;;;;;;;;;;;;;;;19.94;36.79;100564.44;7286366;19;151801;-51
2022/02/21 12:29:07;;;;;;;;;;;;;;;19.95;36.84;100585.72;7287169;19;154986;-50
2022/02/21 12:31:34;;;;;;;;;;;;;;;19.91;37.01;100579.09;7285042;19;156310;-52